createdAt,value
2022-11-09T00:01:57.152Z,11.70
2022-11-09T00:04:27.817Z,6.30
2022-11-09T00:06:58.418Z,5.80
2022-11-09T00:09:29.037Z,6.90
2022-11-09T00:12:00.134Z,7.20
2022-11-09T00:14:30.745Z,8.70
2022-11-09T00:19:26.600Z,8.10
2022-11-09T00:21:57.297Z,5.70
2022-11-09T00:24:29.090Z,6.90
2022-11-09T00:27:00.523Z,7.00
2022-11-09T00:45:49.296Z,9.20
2022-11-09T00:48:19.785Z,8.70
2022-11-09T00:50:53.215Z,7.50
2022-11-09T00:53:24.665Z,9.40
2022-11-09T00:55:59.887Z,9.00
2022-11-09T00:58:32.124Z,8.70
2022-11-09T01:01:08.690Z,6.60
2022-11-09T01:03:39.335Z,8.70
2022-11-09T01:06:14.290Z,9.90
2022-11-09T01:08:47.421Z,8.00
2022-11-09T01:11:20.285Z,9.30
2022-11-09T01:13:51.193Z,9.50
2022-11-09T01:16:22.859Z,12.10
2022-11-09T01:18:56.967Z,10.70
2022-11-09T01:21:30.558Z,11.20
2022-11-09T01:24:03.853Z,9.80
2022-11-09T01:26:34.505Z,8.70
2022-11-09T01:29:05.160Z,10.60
2022-11-09T01:31:36.933Z,9.20
2022-11-09T01:34:07.401Z,16.10
2022-11-09T01:36:37.715Z,7.80
2022-11-09T01:39:08.165Z,8.80
2022-11-09T01:41:42.100Z,8.60
2022-11-09T01:44:14.576Z,8.60
2022-11-09T01:46:50.787Z,8.70
2022-11-09T01:49:28.770Z,7.10
2022-11-09T01:52:02.371Z,7.40
2022-11-09T01:54:37.762Z,10.50
2022-11-09T01:57:11.354Z,9.80
2022-11-09T01:59:45.922Z,11.90
2022-11-09T02:02:16.490Z,14.40
2022-11-09T02:04:50.657Z,12.10
2022-11-09T02:07:21.866Z,12.20
2022-11-09T02:09:56.981Z,10.50
2022-11-09T02:12:29.195Z,11.00
2022-11-09T02:15:00.183Z,13.80
2022-11-09T02:17:31.333Z,11.30
2022-11-09T02:20:03.646Z,11.20
2022-11-09T02:22:34.806Z,10.00
2022-11-09T02:25:05.580Z,11.60
2022-11-09T02:27:36.240Z,9.80
2022-11-09T02:30:09.548Z,11.40
2022-11-09T02:32:40.046Z,13.00
2022-11-09T02:35:12.038Z,11.70
2022-11-09T02:37:46.256Z,11.20
2022-11-09T02:40:20.360Z,12.10
2022-11-09T02:42:51.116Z,11.10
2022-11-09T02:45:21.637Z,11.80
2022-11-09T02:47:52.011Z,10.90
2022-11-09T02:50:22.546Z,10.60
2022-11-09T02:52:53.025Z,10.20
2022-11-09T02:55:23.989Z,11.70
2022-11-09T02:57:54.333Z,11.70
2022-11-09T03:00:24.703Z,11.10
2022-11-09T03:02:56.360Z,11.10
2022-11-09T03:05:27.183Z,12.10
2022-11-09T03:07:57.782Z,11.10
2022-11-09T03:10:28.264Z,10.40
2022-11-09T03:12:58.934Z,12.20
2022-11-09T03:15:30.078Z,10.80
2022-11-09T03:18:00.547Z,11.90
2022-11-09T03:20:30.953Z,13.40
2022-11-09T03:23:01.846Z,10.70
2022-11-09T03:25:32.717Z,12.50
2022-11-09T03:28:04.814Z,11.50
2022-11-09T03:30:36.438Z,10.70
2022-11-09T03:33:10.001Z,12.20
2022-11-09T03:35:40.640Z,11.40
2022-11-09T03:38:11.231Z,12.30
2022-11-09T03:40:42.252Z,12.20
2022-11-09T03:43:12.652Z,12.20
2022-11-09T03:45:44.312Z,11.80
2022-11-09T03:48:14.829Z,11.10
2022-11-09T03:50:45.183Z,12.00
2022-11-09T03:53:15.924Z,13.30
2022-11-09T03:55:46.520Z,10.60
2022-11-09T03:58:17.016Z,12.00
2022-11-09T04:00:47.406Z,11.90
2022-11-09T04:03:18.110Z,9.90
2022-11-09T04:05:48.828Z,10.40
2022-11-09T04:08:19.233Z,8.30
2022-11-09T04:10:49.692Z,10.40
2022-11-09T04:13:20.345Z,10.60
2022-11-09T04:15:51.073Z,9.60
2022-11-09T04:18:21.495Z,8.40
2022-11-09T04:20:51.909Z,10.90
2022-11-09T04:23:22.731Z,11.90
2022-11-09T04:25:53.310Z,9.70
2022-11-09T04:28:23.837Z,10.00
2022-11-09T04:30:54.338Z,10.30
2022-11-09T04:33:24.687Z,10.70
2022-11-09T04:35:55.103Z,10.10
2022-11-09T04:38:25.405Z,11.10
2022-11-09T04:40:55.828Z,13.40
2022-11-09T04:43:26.194Z,11.10
2022-11-09T04:45:56.758Z,9.50
2022-11-09T04:48:27.146Z,10.30
2022-11-09T04:51:02.593Z,12.00
2022-11-09T04:53:33.332Z,12.10
2022-11-09T04:56:03.967Z,12.10
2022-11-09T04:58:34.683Z,12.80
2022-11-09T05:01:09.401Z,9.50
2022-11-09T05:03:40.311Z,15.50
2022-11-09T05:06:24.761Z,14.10
2022-11-09T05:08:55.507Z,13.90
2022-11-09T05:11:26.053Z,13.80
2022-11-09T05:13:56.411Z,14.40
2022-11-09T05:16:27.389Z,11.90
2022-11-09T05:18:57.827Z,14.80
2022-11-09T05:21:28.229Z,14.50
2022-11-09T05:24:01.402Z,14.60
2022-11-09T05:26:33.369Z,12.90
2022-11-09T05:29:05.027Z,13.50
2022-11-09T05:31:35.752Z,13.60
2022-11-09T05:34:07.460Z,13.60
2022-11-09T05:36:37.821Z,13.60
2022-11-09T05:39:08.481Z,14.10
2022-11-09T05:41:38.926Z,10.30
2022-11-09T05:44:09.315Z,14.30
2022-11-09T05:46:39.783Z,13.00
2022-11-09T05:49:10.284Z,14.20
2022-11-09T05:51:40.712Z,14.30
2022-11-09T05:54:11.152Z,14.60
2022-11-09T05:56:41.507Z,12.90
2022-11-09T05:59:12.173Z,14.90
2022-11-09T06:01:42.607Z,13.60
2022-11-09T06:04:13.057Z,13.90
2022-11-09T06:06:45.506Z,13.40
2022-11-09T06:09:16.001Z,13.70
2022-11-09T06:11:46.440Z,13.70
2022-11-09T06:14:16.880Z,12.80
2022-11-09T06:16:47.233Z,14.30
2022-11-09T06:19:17.714Z,14.70
2022-11-09T06:21:48.041Z,14.60
2022-11-09T06:24:18.490Z,9.70
2022-11-09T06:26:48.912Z,12.30
2022-11-09T06:29:19.751Z,14.00
2022-11-09T06:31:51.347Z,13.90
2022-11-09T06:34:21.902Z,14.10
2022-11-09T06:36:52.417Z,11.20
2022-11-09T06:39:23.267Z,12.60
2022-11-09T06:41:53.647Z,14.00
2022-11-09T06:44:24.117Z,15.50
2022-11-09T06:46:54.482Z,12.10
2022-11-09T06:49:25.076Z,13.20
2022-11-09T06:51:55.475Z,13.40
2022-11-09T06:54:25.957Z,10.50
2022-11-09T06:56:57.497Z,16.20
2022-11-09T06:59:27.923Z,14.00
2022-11-09T07:02:01.624Z,17.00
2022-11-09T07:04:32.693Z,14.40
2022-11-09T07:07:03.852Z,16.10
2022-11-09T07:09:34.338Z,12.80
2022-11-09T07:12:05.174Z,17.30
2022-11-09T07:14:35.648Z,15.00
2022-11-09T07:17:06.054Z,17.80
2022-11-09T07:19:36.532Z,17.00
2022-11-09T07:22:06.997Z,15.20
2022-11-09T07:24:37.900Z,17.50
2022-11-09T07:27:08.879Z,15.50
2022-11-09T07:29:39.755Z,14.50
2022-11-09T07:32:10.206Z,17.20
2022-11-09T07:34:40.662Z,18.40
2022-11-09T07:37:11.111Z,16.10
2022-11-09T07:39:42.102Z,16.50
2022-11-09T07:42:12.589Z,14.80
2022-11-09T07:44:44.716Z,16.80
2022-11-09T07:47:18.304Z,15.90
2022-11-09T07:49:48.987Z,17.00
2022-11-09T07:52:19.338Z,17.40
2022-11-09T07:54:52.266Z,16.00
2022-11-09T07:57:24.653Z,17.40
2022-11-09T07:59:58.059Z,18.20
2022-11-09T08:02:31.249Z,17.10
2022-11-09T08:05:03.836Z,17.70
2022-11-09T08:10:06.552Z,16.40
2022-11-09T08:12:38.164Z,14.90
2022-11-09T08:15:11.901Z,16.60
2022-11-09T08:17:44.710Z,14.40
2022-11-09T08:20:17.907Z,11.80
2022-11-09T08:22:51.244Z,12.20
2022-11-09T08:27:54.001Z,12.70
2022-11-09T08:30:26.397Z,11.90
2022-11-09T08:32:59.071Z,11.80
2022-11-09T08:38:04.198Z,12.60
2022-11-09T08:40:36.939Z,13.50
2022-11-09T08:43:11.537Z,12.70
2022-11-09T08:45:43.723Z,12.30
2022-11-09T08:48:17.634Z,12.70
2022-11-09T08:50:55.013Z,12.70
2022-11-09T08:53:28.680Z,10.20
2022-11-09T09:02:59.279Z,11.20
2022-11-09T09:05:29.760Z,9.60
2022-11-09T09:08:01.408Z,10.50
2022-11-09T09:10:32.492Z,10.30
2022-11-09T09:13:03.120Z,9.60
2022-11-09T09:15:33.916Z,8.50
2022-11-09T09:18:05.277Z,9.30
2022-11-09T09:20:35.680Z,8.80
2022-11-09T09:23:06.303Z,6.70
2022-11-09T09:25:36.733Z,7.60
2022-11-09T09:28:07.841Z,8.10
2022-11-09T09:30:38.575Z,8.60
2022-11-09T09:33:08.987Z,8.00
2022-11-09T09:35:39.436Z,8.30
2022-11-09T09:38:09.804Z,7.70
2022-11-09T09:40:51.296Z,6.80
2022-11-09T09:43:28.604Z,8.50
2022-11-09T09:46:00.839Z,7.40
2022-11-09T09:48:36.711Z,14.20
2022-11-09T09:51:12.529Z,9.00
2022-11-09T09:53:46.537Z,6.90
2022-11-09T09:56:21.982Z,6.30
2022-11-09T09:58:56.973Z,6.20
2022-11-09T10:01:35.453Z,6.40
2022-11-09T10:04:06.452Z,4.80
2022-11-09T10:06:44.632Z,5.20
2022-11-09T10:09:24.663Z,5.40
2022-11-09T10:12:01.582Z,5.40
2022-11-09T10:14:44.583Z,4.80
2022-11-09T10:17:23.268Z,5.10
2022-11-09T10:20:01.158Z,6.10
2022-11-09T10:22:38.536Z,6.90
2022-11-09T10:28:13.031Z,5.40
2022-11-09T10:30:44.066Z,6.80
2022-11-09T10:33:21.238Z,5.90
2022-11-09T10:35:56.454Z,5.20
2022-11-09T10:38:29.197Z,5.80
2022-11-09T10:41:28.214Z,5.10
2022-11-09T10:44:18.976Z,6.00
2022-11-09T10:47:11.209Z,5.60
2022-11-09T10:50:15.046Z,5.20
2022-11-09T10:53:18.070Z,7.00
2022-11-09T10:56:20.722Z,6.70
2022-11-09T11:02:05.805Z,5.80
2022-11-09T11:04:55.180Z,5.60
2022-11-09T11:07:44.851Z,4.60
2022-11-09T11:10:34.249Z,5.20
2022-11-09T11:13:25.673Z,5.70
2022-11-09T11:16:26.677Z,4.30
2022-11-09T11:19:36.897Z,6.00
2022-11-09T11:22:27.507Z,5.50
2022-11-09T11:25:22.692Z,4.70
2022-11-09T11:28:19.921Z,4.00
2022-11-09T11:31:14.089Z,3.90
2022-11-09T11:34:04.124Z,4.50
2022-11-09T11:37:02.372Z,4.30
2022-11-09T11:40:02.323Z,5.20
2022-11-09T11:43:28.749Z,3.50
2022-11-09T11:46:22.407Z,4.00
2022-11-09T11:49:27.700Z,5.20
2022-11-09T11:52:23.790Z,4.40
2022-11-09T11:55:31.194Z,3.40
2022-11-09T11:58:30.664Z,4.60
2022-11-09T12:01:32.892Z,3.40
2022-11-09T12:04:45.074Z,2.90
2022-11-09T12:07:39.188Z,6.30
2022-11-09T12:10:44.551Z,7.10
2022-11-09T12:13:49.609Z,2.40
2022-11-09T12:16:45.520Z,2.00
2022-11-09T12:20:11.312Z,3.30
2022-11-09T12:23:15.421Z,1.90
2022-11-09T12:26:16.208Z,2.40
2022-11-09T12:29:14.973Z,2.50
2022-11-09T12:32:11.581Z,3.10
2022-11-09T12:35:14.386Z,4.30
2022-11-09T12:38:05.981Z,5.10
2022-11-09T12:41:00.427Z,2.50
2022-11-09T12:43:53.372Z,2.70
2022-11-09T12:46:45.590Z,2.80
2022-11-09T12:49:38.383Z,2.90
2022-11-09T12:52:29.992Z,2.60
2022-11-09T12:55:22.197Z,3.00
2022-11-09T12:58:23.378Z,5.80
2022-11-09T13:01:15.346Z,4.00
2022-11-09T13:04:05.463Z,4.90
2022-11-09T13:07:29.441Z,2.90
2022-11-09T13:10:31.662Z,4.80
2022-11-09T13:13:26.140Z,3.00
2022-11-09T13:16:34.627Z,3.10
2022-11-09T13:19:54.310Z,3.70
2022-11-09T13:23:02.961Z,2.10
2022-11-09T13:25:53.871Z,4.10
2022-11-09T13:29:13.460Z,3.00
2022-11-09T13:32:24.868Z,5.30
2022-11-09T13:35:44.860Z,3.00
2022-11-09T13:38:34.904Z,2.90
2022-11-09T13:41:47.525Z,3.30
2022-11-09T13:44:38.838Z,2.70
2022-11-09T13:47:34.889Z,3.70
2022-11-09T13:50:25.417Z,5.20
2022-11-09T13:56:24.771Z,2.60
2022-11-09T13:59:22.091Z,2.90
2022-11-09T14:02:20.689Z,4.50
2022-11-09T14:05:27.324Z,5.30
2022-11-09T14:08:22.833Z,5.50
2022-11-09T14:11:31.633Z,5.20
2022-11-09T14:14:50.181Z,4.60
2022-11-09T14:17:46.260Z,4.20
2022-11-09T14:20:41.638Z,5.10
2022-11-09T14:23:33.149Z,3.80
2022-11-09T14:26:25.364Z,3.90
2022-11-09T14:29:23.548Z,6.50
2022-11-09T14:32:31.342Z,5.20
2022-11-09T14:35:26.955Z,2.90
2022-11-09T14:38:23.487Z,4.70
2022-11-09T14:41:22.814Z,6.00
2022-11-09T14:44:17.761Z,6.70
2022-11-09T14:47:07.584Z,3.40
2022-11-09T14:49:56.748Z,3.30
2022-11-09T14:52:46.017Z,3.00
2022-11-09T14:55:36.689Z,4.40
2022-11-09T14:58:25.971Z,3.10
2022-11-09T15:01:24.148Z,5.10
2022-11-09T15:04:16.957Z,4.80
2022-11-09T15:07:07.007Z,3.60
2022-11-09T15:09:58.613Z,3.70
2022-11-09T15:12:52.192Z,2.60
2022-11-09T15:15:41.497Z,4.10
2022-11-09T15:18:34.169Z,2.70
2022-11-09T15:21:36.482Z,2.40
2022-11-09T15:24:28.100Z,4.10
2022-11-09T15:27:34.817Z,3.70
2022-11-09T15:30:32.993Z,5.80
2022-11-09T15:33:26.551Z,2.50
2022-11-09T15:36:28.107Z,4.40
2022-11-09T15:39:20.131Z,3.60
2022-11-09T15:42:12.556Z,3.80
2022-11-09T15:45:02.001Z,3.80
2022-11-09T15:47:56.780Z,5.50
2022-11-09T15:50:46.035Z,4.40
2022-11-09T15:53:35.164Z,5.90
2022-11-09T15:56:25.623Z,4.50
2022-11-09T15:59:19.760Z,4.40
2022-11-09T16:02:09.740Z,4.10
2022-11-09T16:04:59.077Z,8.90
2022-11-09T16:07:52.367Z,6.30
2022-11-09T16:10:43.387Z,3.70
2022-11-09T16:13:32.273Z,4.90
2022-11-09T16:16:22.552Z,4.40
2022-11-09T16:19:15.629Z,4.50
2022-11-09T16:24:52.182Z,5.50
2022-11-09T16:27:50.895Z,4.40
2022-11-09T16:30:45.449Z,6.00
2022-11-09T16:33:35.685Z,4.10
2022-11-09T16:36:26.547Z,6.30
2022-11-09T16:39:17.123Z,3.60
2022-11-09T16:42:08.981Z,6.70
2022-11-09T16:45:00.197Z,4.60
2022-11-09T16:47:52.108Z,4.00
2022-11-09T16:50:43.692Z,4.70
2022-11-09T16:53:33.035Z,4.70
2022-11-09T16:56:22.332Z,4.40
2022-11-09T16:59:12.057Z,2.60
2022-11-09T17:02:01.672Z,5.20
2022-11-09T17:04:50.933Z,4.80
2022-11-09T17:07:42.780Z,6.80
2022-11-09T17:10:32.514Z,4.90
2022-11-09T17:13:22.207Z,5.70
2022-11-09T17:16:17.975Z,7.40
2022-11-09T17:19:07.262Z,3.60
2022-11-09T17:21:56.240Z,5.00
2022-11-09T17:24:45.280Z,6.10
2022-11-09T17:27:36.298Z,5.90
2022-11-09T17:30:37.214Z,5.60
2022-11-09T17:33:26.509Z,9.50
2022-11-09T17:36:25.926Z,5.30
2022-11-09T17:39:26.973Z,7.50
2022-11-09T17:42:16.227Z,4.70
2022-11-09T17:45:06.676Z,4.20
2022-11-09T17:47:55.930Z,6.70
2022-11-09T17:50:45.044Z,6.10
2022-11-09T17:53:34.343Z,4.60
2022-11-09T17:56:23.560Z,5.90
2022-11-09T17:59:12.738Z,5.90
2022-11-09T18:02:02.342Z,4.80
2022-11-09T18:04:51.345Z,6.30
2022-11-09T18:07:40.320Z,5.20
2022-11-09T18:10:29.434Z,10.50
2022-11-09T18:13:18.943Z,5.50
2022-11-09T18:16:17.287Z,6.10
2022-11-09T18:19:07.540Z,9.10
2022-11-09T18:21:56.976Z,6.70
2022-11-09T18:24:51.800Z,4.20
2022-11-09T18:27:48.240Z,9.10
2022-11-09T18:30:41.533Z,7.30
2022-11-09T18:33:30.548Z,6.40
2022-11-09T18:36:21.437Z,4.70
2022-11-09T18:39:10.488Z,4.30
2022-11-09T18:42:00.391Z,6.20
2022-11-09T18:44:49.363Z,5.30
2022-11-09T18:47:39.217Z,4.90
2022-11-09T18:50:28.618Z,3.60
2022-11-09T18:53:17.905Z,5.20
2022-11-09T18:56:09.375Z,4.20
2022-11-09T18:58:59.878Z,7.50
2022-11-09T19:01:48.663Z,6.80
2022-11-09T19:04:37.826Z,4.50
2022-11-09T19:07:28.749Z,5.20
2022-11-09T19:10:20.125Z,5.20
2022-11-09T19:13:08.884Z,5.30
2022-11-09T19:16:02.666Z,8.20
2022-11-09T19:18:51.676Z,6.80
2022-11-09T19:21:45.846Z,7.20
2022-11-09T19:24:35.088Z,6.70
2022-11-09T19:27:25.067Z,7.90
2022-11-09T19:30:14.626Z,4.30
2022-11-09T19:33:04.438Z,8.60
2022-11-09T19:36:23.128Z,10.40
2022-11-09T19:39:04.562Z,9.60
2022-11-09T19:41:54.989Z,10.60
2022-11-09T19:44:43.966Z,7.90
2022-11-09T19:47:40.810Z,5.20
2022-11-09T19:50:29.823Z,6.40
2022-11-09T19:53:19.498Z,6.40
2022-11-09T19:56:11.521Z,4.30
2022-11-09T19:59:01.842Z,5.70
2022-11-09T20:01:51.216Z,4.80
2022-11-09T20:04:40.517Z,5.70
2022-11-09T20:07:30.431Z,7.00
2022-11-09T20:10:21.376Z,4.20
2022-11-09T20:13:10.474Z,6.40
2022-11-09T20:16:03.749Z,6.60
2022-11-09T20:18:52.902Z,10.40
2022-11-09T20:21:42.592Z,5.60
2022-11-09T20:24:31.799Z,7.40
2022-11-09T20:27:20.924Z,6.90
2022-11-09T20:30:13.503Z,7.00
2022-11-09T20:33:04.720Z,6.50
2022-11-09T20:35:55.539Z,4.00
2022-11-09T20:38:44.708Z,7.80
2022-11-09T20:41:34.247Z,7.10
2022-11-09T20:44:23.411Z,4.60
2022-11-09T20:47:12.342Z,4.00
2022-11-09T20:50:01.384Z,5.90
2022-11-09T20:52:51.658Z,4.10
2022-11-09T20:55:41.328Z,6.60
2022-11-09T20:58:30.365Z,7.00
2022-11-09T21:01:20.632Z,4.70
2022-11-09T21:04:09.918Z,7.00
2022-11-09T21:06:59.372Z,8.50
2022-11-09T21:09:49.056Z,3.80
2022-11-09T21:12:39.020Z,3.90
2022-11-09T21:15:28.760Z,6.90
2022-11-09T21:18:18.038Z,7.20
2022-11-09T21:21:09.212Z,6.70
2022-11-09T21:24:16.063Z,10.30
2022-11-09T21:27:31.018Z,4.80
2022-11-09T21:30:20.694Z,6.10
2022-11-09T21:33:09.806Z,7.70
2022-11-09T21:35:59.111Z,12.80
2022-11-09T21:38:48.689Z,8.60
2022-11-09T21:41:40.870Z,11.30
2022-11-09T21:44:32.636Z,9.60
2022-11-09T21:47:21.692Z,5.80
2022-11-09T21:50:12.997Z,5.90
2022-11-09T21:53:02.668Z,6.70
2022-11-09T21:55:51.714Z,6.90
2022-11-09T21:58:40.693Z,5.70
2022-11-09T22:01:29.673Z,7.40
2022-11-09T22:04:19.085Z,6.70
2022-11-09T22:07:09.346Z,7.00
2022-11-09T22:10:10.048Z,6.60
2022-11-09T22:13:31.155Z,7.30
2022-11-09T22:16:20.710Z,5.60
2022-11-09T22:19:27.493Z,4.10
2022-11-09T22:22:17.015Z,5.40
2022-11-09T22:25:07.055Z,3.90
2022-11-09T22:27:56.513Z,9.40
2022-11-09T22:30:45.522Z,7.20
2022-11-09T22:33:35.142Z,4.80
2022-11-09T22:36:24.276Z,18.50
2022-11-09T22:39:13.414Z,6.70
2022-11-09T22:42:02.406Z,6.50
2022-11-09T22:44:51.581Z,8.50
2022-11-09T22:47:40.916Z,7.20
2022-11-09T22:50:30.170Z,5.00
2022-11-09T22:53:19.470Z,6.40
2022-11-09T22:56:10.338Z,6.50
2022-11-09T22:58:59.504Z,6.70
2022-11-09T23:01:49.266Z,8.10
2022-11-09T23:04:38.521Z,7.10
2022-11-09T23:07:30.373Z,6.20
2022-11-09T23:10:22.637Z,5.30
2022-11-09T23:13:13.661Z,5.10
2022-11-09T23:16:03.442Z,8.10
2022-11-09T23:18:55.337Z,4.90
2022-11-09T23:21:44.429Z,9.10
2022-11-09T23:24:50.735Z,6.70
2022-11-09T23:27:39.914Z,8.00
2022-11-09T23:30:29.007Z,6.20
2022-11-09T23:33:18.558Z,5.60
2022-11-09T23:36:09.923Z,10.00
2022-11-09T23:38:59.051Z,5.80
2022-11-09T23:41:48.364Z,4.80
2022-11-09T23:44:37.193Z,6.70
2022-11-09T23:47:26.376Z,5.40
2022-11-09T23:50:15.351Z,7.00
2022-11-09T23:53:04.248Z,6.70
2022-11-09T23:55:53.184Z,6.60
2022-11-09T23:58:42.224Z,7.40
